Time;durP1;ratioP1;P1;durP2;ratioP2;P2;SDS_P1;SDS_P2;PMS_P1;PMS_P2;Temp;Humidity;BMP_temperature;BMP_pressure;BME280_temperature;BME280_humidity;BME280_pressure;Samples;Min_cycle;Max_cycle;Signal;HPM_P1;HPM_P2
2022/11/25 00:00:03;;;;;;;0.10;0.00;;;;;;;7.74;100.00;100750.66;5232258;28;20057;-70
2022/11/25 00:02:35;;;;;;;0.60;0.00;;;;;;;7.77;100.00;100739.84;5231329;28;20032;-70
2022/11/25 00:05:06;;;;;;;0.00;0.00;;;;;;;7.77;100.00;100742.50;5229289;28;20396;-70
2022/11/25 00:07:38;;;;;;;0.00;0.00;;;;;;;7.80;100.00;100741.44;5245952;28;20490;-70
2022/11/25 00:10:09;;;;;;;0.00;0.00;;;;;;;7.81;100.00;100746.66;5231522;28;20048;-70
2022/11/25 00:12:40;;;;;;;0.00;0.00;;;;;;;7.84;100.00;100750.91;5233487;28;20044;-70
2022/11/25 00:15:11;;;;;;;2.30;0.00;;;;;;;7.85;100.00;100736.69;5229415;28;20025;-70
2022/11/25 00:17:43;;;;;;;0.08;0.00;;;;;;;7.86;100.00;100738.38;5229495;28;20388;-70
2022/11/25 00:20:14;;;;;;;0.13;0.10;;;;;;;7.88;100.00;100739.13;5228708;28;20036;-70
2022/11/25 00:22:45;;;;;;;0.00;0.00;;;;;;;7.90;100.00;100736.34;5230666;28;20302;-70
2022/11/25 00:25:17;;;;;;;0.00;0.00;;;;;;;7.91;100.00;100732.75;5227263;28;20056;-70
2022/11/25 00:27:51;;;;;;;0.00;0.00;;;;;;;7.92;100.00;100730.00;5224576;28;20030;-70
2022/11/25 00:30:22;;;;;;;0.00;0.00;;;;;;;7.92;100.00;100718.50;5224029;28;20092;-70
2022/11/25 00:32:54;;;;;;;0.00;0.00;;;;;;;7.94;100.00;100721.91;5222995;28;20045;-69
2022/11/25 00:35:25;;;;;;;0.05;0.00;;;;;;;7.94;100.00;100728.09;5225537;28;20104;-69
2022/11/25 00:37:56;;;;;;;0.00;0.00;;;;;;;7.95;100.00;100718.31;5229819;28;20068;-69
2022/11/25 00:40:28;;;;;;;0.20;0.00;;;;;;;7.95;100.00;100723.63;5227846;28;20026;-69
2022/11/25 00:45:48;;;;;;;0.00;0.00;;;;;;;7.95;100.00;100708.53;5229344;28;20037;-70
2022/11/25 00:48:20;;;;;;;0.00;0.00;;;;;;;7.95;100.00;100713.00;5227777;28;20021;-70
2022/11/25 00:50:51;;;;;;;0.00;0.00;;;;;;;7.95;100.00;100703.22;5228128;28;20033;-70
2022/11/25 00:53:24;;;;;;;0.00;0.00;;;;;;;7.95;100.00;100705.88;5223084;28;20053;-70
2022/11/25 00:56:12;;;;;;;0.10;0.00;;;;;;;7.95;100.00;100723.63;5227967;28;20463;-70
2022/11/25 00:58:44;;;;;;;0.00;0.00;;;;;;;7.95;100.00;100721.81;5227404;28;20032;-70
2022/11/25 01:01:15;;;;;;;0.00;0.00;;;;;;;7.95;100.00;100721.81;5227619;28;20030;-70
2022/11/25 01:03:51;;;;;;;0.00;0.00;;;;;;;7.94;100.00;100730.75;5228718;28;20029;-70
2022/11/25 01:06:22;;;;;;;0.00;0.00;;;;;;;7.95;100.00;100724.47;5229395;28;20026;-69
2022/11/25 01:08:54;;;;;;;0.00;0.00;;;;;;;7.97;100.00;100724.38;5229215;28;20094;-70
2022/11/25 01:11:25;;;;;;;0.00;0.00;;;;;;;7.99;100.00;100725.13;5227703;28;20028;-70
2022/11/25 01:13:57;;;;;;;0.00;0.00;;;;;;;8.00;100.00;100726.84;5227104;28;21293;-70
2022/11/25 01:16:30;;;;;;;0.10;0.00;;;;;;;8.02;100.00;100728.41;5222072;28;20128;-70
2022/11/25 01:19:02;;;;;;;0.00;0.00;;;;;;;8.03;100.00;100726.59;5229557;28;20025;-70
2022/11/25 01:21:34;;;;;;;0.10;0.00;;;;;;;8.04;100.00;100725.66;5222799;28;20681;-70
2022/11/25 01:24:06;;;;;;;0.00;0.00;;;;;;;8.05;100.00;100735.31;5224519;28;20040;-70
2022/11/25 01:26:37;;;;;;;2.28;0.00;;;;;;;8.07;100.00;100730.75;5222008;28;20090;-70
2022/11/25 01:29:15;;;;;;;0.05;0.00;;;;;;;8.08;100.00;100734.28;5221993;28;20033;-70
2022/11/25 01:31:47;;;;;;;0.00;0.00;;;;;;;8.09;100.00;100739.47;5220730;28;20029;-70
2022/11/25 01:34:24;;;;;;;0.10;0.00;;;;;;;8.10;100.00;100743.84;5223509;28;20024;-70
2022/11/25 01:36:55;;;;;;;0.05;0.00;;;;;;;8.12;100.00;100735.78;5220449;28;20044;-70
2022/11/25 01:39:26;;;;;;;0.00;0.00;;;;;;;8.14;100.00;100747.16;5224925;28;20391;-70
2022/11/25 01:41:58;;;;;;;0.00;0.00;;;;;;;8.14;100.00;100747.16;5223959;28;20101;-70
2022/11/25 01:44:31;;;;;;;0.00;0.00;;;;;;;8.15;100.00;100743.53;5221975;28;20033;-70
2022/11/25 01:47:24;;;;;;;0.00;0.00;;;;;;;8.17;100.00;100765.53;5220217;28;20056;-70
2022/11/25 01:50:09;;;;;;;0.00;0.00;;;;;;;8.18;100.00;100767.25;5224953;28;20056;-70
2022/11/25 01:52:45;;;;;;;0.00;0.00;;;;;;;8.19;100.00;100771.63;5223653;28;20060;-70
2022/11/25 01:55:28;;;;;;;0.00;0.00;;;;;;;8.18;100.00;100773.41;5222672;28;20039;-70
2022/11/25 01:58:09;;;;;;;0.00;0.00;;;;;;;8.20;100.00;100781.28;5220843;28;20030;-70
2022/11/25 02:00:49;;;;;;;0.00;0.00;;;;;;;8.20;100.00;100781.28;5222172;28;20028;-70
2022/11/25 02:03:28;;;;;;;0.00;0.00;;;;;;;8.22;100.00;100787.34;5224221;28;20021;-70
2022/11/25 02:06:12;;;;;;;0.00;0.00;;;;;;;8.23;100.00;100799.69;5223098;28;20025;-70
2022/11/25 02:08:48;;;;;;;0.00;0.00;;;;;;;8.24;100.00;100801.38;5222629;28;20029;-70
2022/11/25 02:11:22;;;;;;;0.00;0.00;;;;;;;8.25;100.00;100798.63;5222429;28;20283;-70
2022/11/25 02:13:53;;;;;;;0.20;0.00;;;;;;;8.26;100.00;100794.16;5223698;28;20021;-70
2022/11/25 02:16:25;;;;;;;0.00;0.00;;;;;;;8.28;100.00;100799.38;5221717;28;20287;-70
2022/11/25 02:18:56;;;;;;;0.00;0.00;;;;;;;8.28;100.00;100799.38;5223530;28;20810;-70
2022/11/25 02:21:40;;;;;;;0.10;0.00;;;;;;;8.30;100.00;100816.06;5222182;28;20068;-70
2022/11/25 02:24:41;;;;;;;0.00;0.00;;;;;;;8.29;100.00;100807.25;5226347;28;20095;-70
2022/11/25 02:27:13;;;;;;;0.00;0.00;;;;;;;8.30;100.00;100808.09;5222408;28;20037;-70
2022/11/25 02:29:44;;;;;;;0.00;0.00;;;;;;;8.31;100.00;100810.66;5223992;28;20447;-70
2022/11/25 02:32:20;;;;;;;0.00;0.00;;;;;;;8.30;100.00;100824.03;5224141;28;20071;-70
2022/11/25 02:34:51;;;;;;;0.00;0.00;;;;;;;8.28;100.00;100810.84;5224708;28;20033;-70
2022/11/25 02:37:23;;;;;;;0.00;0.00;;;;;;;8.27;100.00;100825.09;5219019;28;20030;-69
2022/11/25 02:39:54;;;;;;;0.00;0.00;;;;;;;8.24;100.00;100825.28;5223166;28;20025;-69
2022/11/25 02:42:28;;;;;;;0.00;0.00;;;;;;;8.22;100.00;100837.84;5225227;28;20028;-70
2022/11/25 02:45:00;;;;;;;0.00;0.00;;;;;;;8.21;100.00;100836.16;5225019;28;20549;-69
2022/11/25 02:47:31;;;;;;;0.00;0.00;;;;;;;8.18;100.00;100829.22;5229114;28;20029;-70
2022/11/25 02:50:03;;;;;;;0.00;0.00;;;;;;;8.16;100.00;100823.16;5226432;28;20029;-70
2022/11/25 02:52:34;;;;;;;0.00;0.00;;;;;;;8.17;100.00;100813.38;5222612;28;20029;-70
2022/11/25 02:55:06;;;;;;;0.00;0.00;;;;;;;8.16;100.00;100815.19;5227248;28;20038;-70
2022/11/25 02:57:37;;;;;;;0.15;0.00;;;;;;;8.16;100.00;100803.69;5224122;28;20380;-70
2022/11/25 03:00:08;;;;;;;0.00;0.00;;;;;;;8.15;100.00;100783.38;5231250;28;20530;-70
2022/11/25 03:02:40;;;;;;;0.00;0.00;;;;;;;8.14;100.00;100766.59;5232669;28;20144;-70
2022/11/25 03:05:12;;;;;;;0.00;0.00;;;;;;;8.12;100.00;100739.28;5226709;28;20120;-70
2022/11/25 03:07:43;;;;;;;0.00;0.00;;;;;;;8.10;100.00;100735.88;5227972;28;20586;-70
2022/11/25 03:10:14;;;;;;;0.00;0.00;;;;;;;8.08;100.00;100736.94;5230411;28;20039;-70
2022/11/25 03:12:45;;;;;;;0.00;0.00;;;;;;;8.05;100.00;100746.81;5231379;28;20035;-70
2022/11/25 03:15:17;;;;;;;0.00;0.00;;;;;;;8.05;100.00;100765.44;5231054;28;20112;-70
2022/11/25 03:17:49;;;;;;;0.00;0.00;;;;;;;8.05;100.00;100789.34;5233393;28;20068;-70
2022/11/25 03:20:20;;;;;;;0.00;0.00;;;;;;;8.04;100.00;100792.09;5230381;28;20521;-69
2022/11/25 03:22:51;;;;;;;0.00;0.00;;;;;;;8.02;100.00;100792.19;5228041;28;20037;-70
2022/11/25 03:25:23;;;;;;;0.00;0.00;;;;;;;8.01;100.00;100773.69;5231598;28;20491;-70
2022/11/25 03:27:54;;;;;;;0.00;0.00;;;;;;;8.00;100.00;100772.00;5229558;28;20139;-70
2022/11/25 03:30:27;;;;;;;0.00;0.00;;;;;;;7.99;100.00;100779.09;5231153;28;20076;-70
2022/11/25 03:32:58;;;;;;;0.00;0.00;;;;;;;7.99;100.00;100791.53;5231468;28;20430;-70
2022/11/25 03:35:30;;;;;;;0.20;0.00;;;;;;;7.97;100.00;100807.56;5230059;28;20100;-70
2022/11/25 03:38:01;;;;;;;0.00;0.00;;;;;;;7.96;100.00;100823.66;5233625;28;20033;-69
2022/11/25 03:40:32;;;;;;;0.10;0.00;;;;;;;7.96;100.00;100819.16;5231640;28;20391;-70
2022/11/25 03:43:04;;;;;;;0.00;0.00;;;;;;;7.96;100.00;100827.16;5234777;28;20025;-69
2022/11/25 03:45:35;;;;;;;0.00;0.00;;;;;;;7.97;100.00;100823.53;5236518;28;20082;-69
2022/11/25 03:48:06;;;;;;;0.52;0.00;;;;;;;7.96;100.00;100824.50;5249946;28;20702;-69
2022/11/25 03:50:37;;;;;;;0.00;0.00;;;;;;;7.96;100.00;100827.16;5236074;28;20040;-69
2022/11/25 03:53:09;;;;;;;0.00;0.00;;;;;;;7.95;100.00;100822.78;5229541;28;20087;-69
2022/11/25 03:55:40;;;;;;;0.00;0.00;;;;;;;7.93;100.00;100831.81;5237910;28;20096;-69
2022/11/25 03:58:11;;;;;;;0.00;0.00;;;;;;;7.92;100.00;100828.31;5232243;28;20064;-69
2022/11/25 04:00:42;;;;;;;0.00;0.00;;;;;;;7.90;100.00;100830.22;5230803;28;20538;-69
2022/11/25 04:03:14;;;;;;;0.00;0.00;;;;;;;7.90;100.00;100834.66;5237581;28;20448;-70
2022/11/25 04:05:45;;;;;;;0.00;0.00;;;;;;;7.88;100.00;100839.22;5231075;28;20128;-70
2022/11/25 04:08:16;;;;;;;0.00;0.00;;;;;;;7.87;100.00;100854.31;5236426;28;20040;-70
2022/11/25 04:10:49;;;;;;;0.00;0.00;;;;;;;7.83;100.00;100855.47;5229064;28;20034;-68
2022/11/25 04:13:20;;;;;;;0.00;0.00;;;;;;;7.82;100.00;100843.13;5229768;28;20044;-69
2022/11/25 04:15:52;;;;;;;0.00;0.00;;;;;;;7.79;100.00;100851.31;5230313;28;20033;-69
2022/11/25 04:18:23;;;;;;;0.00;0.00;;;;;;;7.74;100.00;100848.94;5230905;28;20091;-69
2022/11/25 04:20:54;;;;;;;0.00;0.00;;;;;;;7.70;100.00;100857.22;5229838;28;20479;-69
2022/11/25 04:23:25;;;;;;;0.00;0.00;;;;;;;7.66;100.00;100857.38;5233726;28;21521;-69
2022/11/25 04:25:57;;;;;;;0.00;0.00;;;;;;;7.58;100.00;100862.34;5227207;28;20391;-69
2022/11/25 04:28:28;;;;;;;0.00;0.00;;;;;;;7.54;100.00;100874.13;5227733;28;20057;-69
2022/11/25 04:31:05;;;;;;;0.00;0.00;;;;;;;7.49;100.00;100876.19;5229812;28;20073;-69
2022/11/25 04:33:36;;;;;;;0.00;0.00;;;;;;;7.45;100.00;100880.84;5229657;28;20144;-69
2022/11/25 04:36:07;;;;;;;0.00;0.00;;;;;;;7.43;100.00;100885.41;5227324;28;20035;-69
2022/11/25 04:38:39;;;;;;;0.00;0.00;;;;;;;7.41;100.00;100894.41;5234018;28;20030;-69
2022/11/25 04:41:10;;;;;;;0.00;0.00;;;;;;;7.37;100.00;100896.41;5228773;28;20729;-69
2022/11/25 04:43:41;;;;;;;0.00;0.00;;;;;;;7.34;100.00;100901.91;5229757;28;20049;-69
2022/11/25 04:46:16;;;;;;;0.00;0.00;;;;;;;7.35;100.00;100902.78;5229941;28;20072;-69
2022/11/25 04:48:47;;;;;;;0.00;0.00;;;;;;;7.35;100.00;100894.81;5235071;28;20025;-69
2022/11/25 04:51:19;;;;;;;1.55;0.00;;;;;;;7.34;100.00;100893.09;5228090;28;20111;-69
2022/11/25 04:53:50;;;;;;;0.00;0.00;;;;;;;7.33;100.00;100886.94;5234226;28;20075;-69
2022/11/25 04:56:21;;;;;;;0.00;0.00;;;;;;;7.32;100.00;100892.34;5227632;28;20167;-69
2022/11/25 05:01:43;;;;;;;0.00;0.00;;;;;;;7.25;100.00;100911.28;5225281;28;20034;-69
2022/11/25 05:04:14;;;;;;;0.00;0.00;;;;;;;7.24;100.00;100914.88;5229367;28;20042;-69
2022/11/25 05:06:45;;;;;;;0.00;0.00;;;;;;;7.24;100.00;100927.31;5225612;28;20405;-69
2022/11/25 05:09:17;;;;;;;0.00;0.00;;;;;;;7.21;100.00;100920.41;5228366;28;20033;-68
2022/11/25 05:11:48;;;;;;;0.00;0.00;;;;;;;7.19;100.00;100919.63;5225893;28;20025;-69
2022/11/25 05:14:19;;;;;;;0.00;0.00;;;;;;;7.17;100.00;100921.53;5224250;28;20034;-69
2022/11/25 05:16:51;;;;;;;0.00;0.00;;;;;;;7.14;100.00;100932.31;5224480;28;21663;-69
2022/11/25 05:19:22;;;;;;;0.00;0.00;;;;;;;7.09;100.00;100922.94;5228480;28;21628;-69
2022/11/25 05:21:54;;;;;;;0.00;0.00;;;;;;;7.04;100.00;100921.41;5221694;28;20466;-68
2022/11/25 05:24:25;;;;;;;0.10;0.00;;;;;;;7.02;100.00;100925.13;5224150;28;20170;-69
2022/11/25 05:26:56;;;;;;;0.00;0.00;;;;;;;7.00;100.00;100922.56;5226799;28;20471;-69
2022/11/25 05:29:27;;;;;;;0.00;0.00;;;;;;;6.99;100.00;100915.53;5223990;28;20029;-69
2022/11/25 05:31:59;;;;;;;0.10;0.00;;;;;;;6.96;100.00;100920.16;5223706;28;20427;-68
2022/11/25 05:34:30;;;;;;;0.00;0.00;;;;;;;6.93;100.00;100926.50;5227631;28;20539;-69
2022/11/25 05:37:02;;;;;;;0.00;0.00;;;;;;;6.90;100.00;100934.63;5221434;28;20030;-69
2022/11/25 05:39:34;;;;;;;0.00;0.00;;;;;;;6.87;100.00;100929.53;5224674;28;20617;-69
2022/11/25 05:42:06;;;;;;;0.00;0.00;;;;;;;6.83;100.00;100934.16;5222259;28;20041;-69
2022/11/25 05:44:37;;;;;;;0.00;0.00;;;;;;;6.78;100.00;100930.94;5223134;28;20378;-69
2022/11/25 05:47:08;;;;;;;0.00;0.00;;;;;;;6.76;100.00;100940.78;5223256;28;20033;-68
2022/11/25 05:49:40;;;;;;;0.00;0.00;;;;;;;6.74;100.00;100945.31;5222054;28;20033;-69
2022/11/25 05:52:11;;;;;;;0.00;0.00;;;;;;;6.70;100.00;100948.25;5222179;28;20098;-69
2022/11/25 05:54:42;;;;;;;0.00;0.00;;;;;;;6.66;100.00;100952.88;5232317;28;20033;-69
2022/11/25 05:57:13;;;;;;;0.00;0.00;;;;;;;6.62;100.00;100949.53;5221515;28;20083;-69
2022/11/25 05:59:45;;;;;;;0.00;0.00;;;;;;;6.61;100.00;100961.06;5224187;28;20033;-69
2022/11/25 06:02:16;;;;;;;0.05;0.00;;;;;;;6.58;100.00;100958.63;5221418;28;20488;-69
2022/11/25 06:04:47;;;;;;;0.00;0.00;;;;;;;6.56;100.00;100959.63;5221246;28;20033;-68
2022/11/25 06:07:19;;;;;;;0.00;0.00;;;;;;;6.52;100.00;100963.41;5222721;28;20159;-68
2022/11/25 06:09:50;;;;;;;0.00;0.00;;;;;;;6.50;100.00;100963.53;5224271;28;20026;-69
2022/11/25 06:12:21;;;;;;;0.00;0.00;;;;;;;6.47;100.00;100959.22;5218587;28;20029;-69
2022/11/25 06:14:53;;;;;;;0.00;0.00;;;;;;;6.45;100.00;100963.75;5224150;28;20031;-69
2022/11/25 06:17:24;;;;;;;0.00;0.00;;;;;;;6.43;100.00;100962.16;5225831;28;20593;-69
2022/11/25 06:19:55;;;;;;;0.00;0.00;;;;;;;6.40;100.00;100968.47;5224059;28;20124;-69
2022/11/25 06:22:26;;;;;;;0.00;0.00;;;;;;;6.38;100.00;100983.59;5225172;28;20507;-69
2022/11/25 06:24:58;;;;;;;0.00;0.00;;;;;;;6.36;100.00;100979.34;5222459;28;20033;-69
2022/11/25 06:27:29;;;;;;;0.00;0.00;;;;;;;6.36;100.00;100984.63;5221743;28;20025;-70
2022/11/25 06:30:01;;;;;;;0.00;0.00;;;;;;;6.33;100.00;100976.84;5223051;28;20040;-70
2022/11/25 06:32:32;;;;;;;0.10;0.00;;;;;;;6.31;100.00;100989.34;5221609;28;20036;-70
2022/11/25 06:35:04;;;;;;;0.00;0.00;;;;;;;6.30;100.00;100992.94;5221862;28;20124;-70
2022/11/25 06:37:35;;;;;;;0.10;0.00;;;;;;;6.28;100.00;101000.97;5219978;28;21687;-70
2022/11/25 06:40:07;;;;;;;0.00;0.00;;;;;;;6.25;100.00;101004.66;5221663;28;20037;-70
2022/11/25 06:42:42;;;;;;;0.00;0.00;;;;;;;6.23;100.00;101011.84;5221046;28;20025;-70
2022/11/25 06:45:13;;;;;;;0.05;0.00;;;;;;;6.21;100.00;101011.06;5223270;28;20372;-70
2022/11/25 06:47:44;;;;;;;0.00;0.00;;;;;;;6.18;100.00;101008.59;5225130;28;20026;-70
2022/11/25 06:50:16;;;;;;;0.00;0.00;;;;;;;6.17;100.00;101006.84;5223944;28;20029;-70
2022/11/25 06:52:47;;;;;;;0.00;0.00;;;;;;;6.16;100.00;101007.81;5222424;28;20033;-70
2022/11/25 06:55:18;;;;;;;0.00;0.00;;;;;;;6.16;100.00;101009.63;5226834;28;20034;-69
2022/11/25 06:57:49;;;;;;;0.10;0.00;;;;;;;6.12;100.00;101011.56;5222561;28;20033;-69
2022/11/25 07:00:21;;;;;;;0.00;0.00;;;;;;;6.11;100.00;101017.81;5223438;28;20033;-69
2022/11/25 07:02:52;;;;;;;0.00;0.00;;;;;;;6.09;100.00;101015.22;5220521;28;20116;-69
2022/11/25 07:05:24;;;;;;;0.00;0.00;;;;;;;6.06;100.00;101020.72;5220625;28;20057;-69
2022/11/25 07:07:56;;;;;;;0.00;0.00;;;;;;;6.03;100.00;101012.91;5222587;28;20423;-69
2022/11/25 07:10:27;;;;;;;0.08;0.00;;;;;;;6.01;100.00;101025.41;5220203;28;21073;-69
2022/11/25 07:12:59;;;;;;;0.00;0.00;;;;;;;5.98;100.00;101025.56;5223547;28;20033;-69
2022/11/25 07:15:30;;;;;;;0.00;0.00;;;;;;;5.97;100.00;101044.19;5224761;28;20030;-69
2022/11/25 07:18:01;;;;;;;0.00;0.00;;;;;;;5.95;100.00;101038.97;5223060;28;20140;-69
2022/11/25 07:20:32;;;;;;;0.00;0.00;;;;;;;5.94;100.00;101047.81;5222309;28;20403;-69
2022/11/25 07:23:04;;;;;;;0.00;0.00;;;;;;;5.93;100.00;101047.94;5219812;28;20392;-69
2022/11/25 07:25:35;;;;;;;0.00;0.00;;;;;;;5.90;100.00;101054.22;5229125;28;20448;-69
2022/11/25 07:28:06;;;;;;;0.00;0.00;;;;;;;5.88;100.00;101056.94;5227064;28;20025;-69
2022/11/25 07:30:37;;;;;;;0.00;0.00;;;;;;;5.87;100.00;101063.19;5225276;28;20025;-69
2022/11/25 07:33:09;;;;;;;0.00;0.00;;;;;;;5.87;100.00;101067.66;5224337;28;20034;-69
2022/11/25 07:35:40;;;;;;;0.22;0.00;;;;;;;5.85;100.00;101064.22;5223912;28;20033;-69
2022/11/25 07:38:11;;;;;;;0.00;0.00;;;;;;;5.85;100.00;101077.47;5220741;28;20029;-69
2022/11/25 07:40:43;;;;;;;0.10;0.00;;;;;;;5.83;100.00;101081.94;5219356;28;20029;-69
2022/11/25 07:43:14;;;;;;;0.08;0.00;;;;;;;5.81;100.00;101079.41;5210614;28;20037;-69
2022/11/25 07:45:45;;;;;;;0.00;0.00;;;;;;;5.82;100.00;101096.16;5216421;28;20022;-69
2022/11/25 07:48:16;;;;;;;0.00;0.00;;;;;;;5.81;100.00;101105.00;5225252;28;20030;-68
2022/11/25 07:50:49;;;;;;;0.00;0.00;;;;;;;5.82;100.00;101109.38;5225657;28;20044;-69
2022/11/25 07:53:20;;;;;;;0.10;0.00;;;;;;;5.80;100.00;101112.09;5224963;28;20128;-69
2022/11/25 07:55:51;;;;;;;0.00;0.00;;;;;;;5.80;100.00;101114.75;5222690;28;20200;-69
2022/11/25 07:58:22;;;;;;;0.00;0.00;;;;;;;5.80;100.00;101120.06;5223738;28;20127;-68
2022/11/25 08:00:54;;;;;;;0.00;0.00;;;;;;;5.81;100.00;101115.59;5229199;28;20635;-69
2022/11/25 08:03:25;;;;;;;0.00;0.00;;;;;;;5.80;100.00;101125.34;5226664;28;20466;-69
2022/11/25 08:06:08;;;;;;;0.00;0.00;;;;;;;5.81;100.00;101134.13;5228796;28;20029;-69
2022/11/25 08:08:41;;;;;;;0.00;0.00;;;;;;;5.79;100.00;101141.31;5225431;28;20494;-69
2022/11/25 08:11:19;;;;;;;0.00;0.00;;;;;;;5.81;100.00;101142.09;5226206;28;20491;-69
2022/11/25 08:13:51;;;;;;;0.00;0.00;;;;;;;5.82;100.00;101149.09;5224670;28;20026;-69
2022/11/25 08:16:26;;;;;;;0.00;0.00;;;;;;;5.81;100.00;101158.84;5226404;28;20033;-69
2022/11/25 08:18:59;;;;;;;0.00;0.00;;;;;;;5.81;100.00;101156.19;5227561;28;20510;-68
2022/11/25 08:21:31;;;;;;;0.00;0.00;;;;;;;5.84;100.00;101160.47;5225710;28;20052;-68
2022/11/25 08:24:02;;;;;;;0.00;0.00;;;;;;;5.83;100.00;101161.38;5223739;28;20029;-68
2022/11/25 08:26:36;;;;;;;0.00;0.00;;;;;;;5.85;100.00;101168.34;5228617;28;20029;-69
2022/11/25 08:29:12;;;;;;;0.00;0.00;;;;;;;5.86;100.00;101171.84;5225641;28;20033;-69
2022/11/25 08:31:43;;;;;;;0.00;0.00;;;;;;;5.86;100.00;101169.19;5222801;28;20420;-69
2022/11/25 08:34:21;;;;;;;0.00;0.00;;;;;;;5.88;100.00;101169.97;5225524;28;20037;-69
2022/11/25 08:36:52;;;;;;;0.08;0.00;;;;;;;5.89;100.00;101169.88;5225906;28;20160;-70
2022/11/25 08:39:23;;;;;;;0.00;0.00;;;;;;;5.92;100.00;101171.50;5223103;28;20542;-70
2022/11/25 08:41:54;;;;;;;0.00;0.00;;;;;;;5.93;100.00;101167.09;5225560;28;20446;-69
2022/11/25 08:44:27;;;;;;;0.10;0.08;;;;;;;5.94;100.00;101168.78;5221765;28;20120;-69
2022/11/25 08:46:58;;;;;;;0.00;0.00;;;;;;;5.95;100.00;101167.88;5224485;28;20475;-69
2022/11/25 08:49:30;;;;;;;0.00;0.00;;;;;;;5.96;100.00;101167.78;5222810;28;20120;-69
2022/11/25 08:52:01;;;;;;;0.00;0.00;;;;;;;5.96;100.00;101167.78;5222206;28;20037;-69
2022/11/25 08:54:32;;;;;;;0.00;0.00;;;;;;;5.99;100.00;101170.31;5225562;28;20048;-69
2022/11/25 08:57:04;;;;;;;0.17;0.00;;;;;;;6.01;100.00;101171.06;5230399;28;20499;-70
2022/11/25 08:59:36;;;;;;;0.03;0.00;;;;;;;6.05;100.00;101180.56;5230154;28;20506;-70
2022/11/25 09:02:16;;;;;;;0.00;0.00;;;;;;;6.07;100.00;101184.00;5226444;28;20048;-70
2022/11/25 09:04:47;;;;;;;0.00;0.00;;;;;;;6.10;100.00;101185.66;5230345;28;20037;-70
2022/11/25 09:07:19;;;;;;;0.00;0.00;;;;;;;6.14;100.00;101192.50;5228497;28;20135;-70
2022/11/25 09:09:50;;;;;;;0.00;0.00;;;;;;;6.17;100.00;101202.06;5228925;28;20037;-70
2022/11/25 09:12:21;;;;;;;0.08;0.00;;;;;;;6.23;100.00;101197.31;5227067;28;20056;-68
2022/11/25 09:14:53;;;;;;;0.00;0.00;;;;;;;6.26;100.00;101198.94;5229599;28;20037;-68
2022/11/25 09:17:24;;;;;;;0.00;0.00;;;;;;;6.28;100.00;101205.84;5227300;28;20120;-69
2022/11/25 09:19:55;;;;;;;0.00;0.00;;;;;;;6.33;100.00;101213.56;5223377;28;20034;-69
2022/11/25 09:22:27;;;;;;;0.00;0.00;;;;;;;6.37;100.00;101209.81;5226805;28;20025;-69
2022/11/25 09:24:58;;;;;;;0.00;0.00;;;;;;;6.42;100.00;101218.41;5230578;28;20033;-69
2022/11/25 09:27:30;;;;;;;0.35;0.00;;;;;;;6.48;100.00;101219.84;5230866;28;20037;-68
2022/11/25 09:30:01;;;;;;;0.00;0.00;;;;;;;6.54;100.00;101221.31;5227468;28;20068;-68
2022/11/25 09:32:33;;;;;;;0.00;0.00;;;;;;;6.59;100.00;101232.53;5226051;28;20029;-68
2022/11/25 09:35:05;;;;;;;0.00;0.00;;;;;;;6.63;100.00;101231.41;5227528;28;20033;-69
2022/11/25 09:37:36;;;;;;;0.00;0.00;;;;;;;6.66;100.00;101234.78;5225250;28;20112;-69
2022/11/25 09:40:32;;;;;;;0.10;0.00;;;;;;;6.72;100.00;101243.34;5228609;28;20025;-68
2022/11/25 09:49:33;;;;;;;0.00;0.00;;;;;;;6.86;100.00;101251.38;5228959;28;20041;-69
2022/11/25 09:52:22;;;;;;;0.00;0.00;;;;;;;6.86;100.00;101248.75;5229274;28;20041;-69
2022/11/25 09:55:22;;;;;;;0.00;0.00;;;;;;;6.91;100.00;101261.78;5228047;28;20056;-68
2022/11/25 09:57:54;;;;;;;0.08;0.00;;;;;;;6.91;100.00;101259.97;5229475;28;20052;-69
2022/11/25 10:00:39;;;;;;;0.00;0.00;;;;;;;6.94;100.00;101267.75;5224343;28;20033;-69
2022/11/25 10:03:23;;;;;;;0.00;0.00;;;;;;;6.96;100.00;101268.53;5226301;28;20040;-68
2022/11/25 10:06:14;;;;;;;0.00;0.00;;;;;;;7.01;100.00;101269.13;5225628;28;20637;-68
2022/11/25 10:09:14;;;;;;;0.00;0.00;;;;;;;7.04;100.00;101273.41;5221414;28;20546;-68
2022/11/25 10:12:09;;;;;;;0.00;0.00;;;;;;;7.06;100.00;101269.72;5222193;28;20041;-69
2022/11/25 10:15:33;;;;;;;0.00;0.00;;;;;;;7.12;100.00;101281.81;5225098;28;20086;-69
2022/11/25 10:18:29;;;;;;;0.00;0.00;;;;;;;7.14;100.00;101281.72;5209183;28;20076;-69
2022/11/25 10:21:01;;;;;;;0.00;0.00;;;;;;;7.16;100.00;101288.66;5228407;28;20460;-67
2022/11/25 10:23:36;;;;;;;0.00;0.00;;;;;;;7.21;100.00;101310.50;5226678;28;20107;-67
2022/11/25 10:26:14;;;;;;;0.10;0.00;;;;;;;7.25;100.00;101308.53;5223397;28;20668;-69
2022/11/25 10:28:54;;;;;;;0.00;0.00;;;;;;;7.27;100.00;101314.63;5226655;28;20032;-69
2022/11/25 10:31:35;;;;;;;0.32;0.00;;;;;;;7.29;100.00;101302.13;5225966;28;20691;-69
2022/11/25 10:34:39;;;;;;;0.00;0.00;;;;;;;7.33;100.00;101316.94;5225024;28;20036;-69
2022/11/25 10:37:18;;;;;;;0.00;0.00;;;;;;;7.35;100.00;101322.16;5227012;28;20045;-69
2022/11/25 10:39:49;;;;;;;0.00;0.00;;;;;;;7.36;100.00;101316.72;5227171;28;20037;-69
2022/11/25 10:42:24;;;;;;;0.00;0.00;;;;;;;7.38;100.00;101319.31;5227609;28;20036;-70
2022/11/25 10:44:55;;;;;;;0.00;0.00;;;;;;;7.39;100.00;101316.56;5226896;28;20028;-69
2022/11/25 10:47:52;;;;;;;0.00;0.00;;;;;;;7.44;100.00;101327.81;5228896;28;20464;-69
2022/11/25 10:50:31;;;;;;;0.00;0.00;;;;;;;7.49;100.00;101330.19;5230773;28;20025;-69
2022/11/25 10:53:19;;;;;;;0.00;0.00;;;;;;;7.52;100.00;101332.69;5226350;28;20076;-69
2022/11/25 10:55:58;;;;;;;0.00;0.00;;;;;;;7.57;100.00;101338.56;5227106;28;20104;-69
2022/11/25 10:58:39;;;;;;;0.10;0.00;;;;;;;7.62;100.00;101338.34;5227977;28;20033;-68
2022/11/25 11:01:26;;;;;;;0.00;0.00;;;;;;;7.67;100.00;101344.25;5226020;28;20025;-68
2022/11/25 11:04:05;;;;;;;0.00;0.00;;;;;;;7.70;100.00;101346.72;5231618;28;20176;-69
2022/11/25 11:06:48;;;;;;;0.00;0.00;;;;;;;7.71;100.00;101350.22;5227359;28;20112;-69
2022/11/25 11:09:32;;;;;;;0.00;0.00;;;;;;;7.76;100.00;101351.69;5227096;28;20488;-69
2022/11/25 11:12:25;;;;;;;0.03;0.00;;;;;;;7.79;100.00;101355.97;5229581;28;20045;-69
2022/11/25 11:15:21;;;;;;;0.00;0.00;;;;;;;7.82;100.00;101369.06;5227180;28;20040;-69
2022/11/25 11:17:54;;;;;;;0.00;0.00;;;;;;;7.88;100.00;101360.78;5230633;28;20038;-69
2022/11/25 11:20:30;;;;;;;0.00;0.00;;;;;;;7.93;100.00;101365.81;5232583;28;20086;-69
2022/11/25 11:23:08;;;;;;;0.00;0.00;;;;;;;7.94;100.00;101373.72;5228624;28;20044;-70
2022/11/25 11:25:42;;;;;;;0.00;0.00;;;;;;;7.98;100.00;101371.75;5231933;28;20364;-69
2022/11/25 11:28:35;;;;;;;0.00;0.00;;;;;;;8.00;100.00;101381.31;5228418;28;20444;-70
2022/11/25 11:31:25;;;;;;;0.00;0.00;;;;;;;7.99;100.00;101376.09;5232713;28;20049;-69
2022/11/25 11:34:17;;;;;;;0.00;0.00;;;;;;;8.00;100.00;101385.78;5231680;28;20108;-70
2022/11/25 11:37:15;;;;;;;0.00;0.00;;;;;;;8.05;100.00;101389.91;5231604;28;20064;-70
2022/11/25 11:39:49;;;;;;;0.00;0.00;;;;;;;8.08;100.00;101391.53;5231064;28;20116;-70
2022/11/25 11:42:48;;;;;;;0.00;0.00;;;;;;;8.13;100.00;101409.84;5227409;28;20033;-70
2022/11/25 11:45:22;;;;;;;0.10;0.00;;;;;;;8.18;100.00;101405.97;5230542;28;20029;-70
2022/11/25 11:48:23;;;;;;;0.35;0.17;;;;;;;8.21;100.00;101407.63;5227947;28;20025;-70
2022/11/25 11:51:22;;;;;;;0.00;0.00;;;;;;;8.25;100.00;101409.16;5230590;28;20041;-69
2022/11/25 11:54:06;;;;;;;0.00;0.00;;;;;;;8.26;100.00;101405.53;5230949;28;20053;-69
2022/11/25 11:56:41;;;;;;;0.00;0.00;;;;;;;8.30;100.00;101404.41;5230065;28;20037;-69
2022/11/25 11:59:45;;;;;;;0.00;0.00;;;;;;;8.33;100.00;101409.56;5230447;28;20033;-70
2022/11/25 12:02:54;;;;;;;0.10;0.00;;;;;;;8.38;100.00;101415.47;5229928;28;20041;-71
2022/11/25 12:05:30;;;;;;;0.10;0.00;;;;;;;8.39;100.00;101417.19;5228754;28;20036;-70
2022/11/25 12:08:19;;;;;;;0.00;0.00;;;;;;;8.40;100.00;101402.09;5242609;28;20515;-71
2022/11/25 12:11:02;;;;;;;0.30;0.00;;;;;;;8.43;100.00;101415.22;5228997;28;20030;-70